createdAt,value
2018-07-17T00:00:28.454Z,24.28
2018-07-17T00:01:27.652Z,24.26
2018-07-17T00:02:28.205Z,24.29
2018-07-17T00:03:27.968Z,24.23
2018-07-17T00:04:28.266Z,24.18
2018-07-17T00:05:28.275Z,24.28
2018-07-17T00:06:28.043Z,24.18
2018-07-17T00:07:28.079Z,24.18
2018-07-17T00:08:28.360Z,24.13
2018-07-17T00:09:28.435Z,24.11
2018-07-17T00:10:28.412Z,24.11
2018-07-17T00:11:28.435Z,24.06
2018-07-17T00:12:28.456Z,24.14
2018-07-17T00:13:28.221Z,24.05
2018-07-17T00:14:28.248Z,24.02
2018-07-17T00:15:28.531Z,24.03
2018-07-17T00:16:28.305Z,23.98
2018-07-17T00:17:28.328Z,23.96
2018-07-17T00:18:28.609Z,23.95
2018-07-17T00:19:28.645Z,23.96
2018-07-17T00:20:28.659Z,23.92
2018-07-17T00:21:28.681Z,23.87
2018-07-17T00:22:28.467Z,23.91
2018-07-17T00:23:28.478Z,23.91
2018-07-17T00:24:28.501Z,23.74
2018-07-17T00:25:28.786Z,23.84
2018-07-17T00:26:28.841Z,23.77
2018-07-17T00:27:28.833Z,23.78
2018-07-17T00:28:28.860Z,23.84
2018-07-17T00:29:28.630Z,23.77
2018-07-17T00:30:28.911Z,23.74
2018-07-17T00:31:28.681Z,23.77
2018-07-17T00:32:28.970Z,23.69
2018-07-17T00:33:28.729Z,23.76
2018-07-17T00:34:28.499Z,23.68
2018-07-17T00:35:29.040Z,23.69
2018-07-17T00:36:28.801Z,23.74
2018-07-17T00:37:29.092Z,23.74
2018-07-17T00:38:29.118Z,23.62
2018-07-17T00:39:28.879Z,23.66
2018-07-17T00:40:29.180Z,23.62
2018-07-17T00:41:29.185Z,23.63
2018-07-17T00:42:29.224Z,23.55
2018-07-17T00:43:29.390Z,23.63
2018-07-17T00:44:29.003Z,23.51
2018-07-17T00:45:29.031Z,23.56
2018-07-17T00:46:29.057Z,23.48
2018-07-17T00:47:29.336Z,23.46
2018-07-17T00:48:29.373Z,23.5
2018-07-17T00:49:28.867Z,23.47
2018-07-17T00:50:29.157Z,23.47
2018-07-17T00:51:29.186Z,23.37
2018-07-17T00:52:29.212Z,23.37
2018-07-17T00:53:29.228Z,23.34
2018-07-17T00:54:29.267Z,23.36
2018-07-17T00:55:29.540Z,23.41
2018-07-17T00:56:29.568Z,23.25
2018-07-17T00:57:29.339Z,23.27
2018-07-17T00:58:29.356Z,23.28
2018-07-17T00:59:29.117Z,23.25
2018-07-17T01:00:29.403Z,23.23
2018-07-17T01:01:29.709Z,23.31
2018-07-17T01:02:29.452Z,23.27
2018-07-17T01:03:29.738Z,23.25
2018-07-17T01:04:29.504Z,23.18
2018-07-17T01:05:29.531Z,23.23
2018-07-17T01:06:29.555Z,23.18
2018-07-17T01:07:29.838Z,23.1
2018-07-17T01:08:29.611Z,23.1
2018-07-17T01:09:29.893Z,23.06
2018-07-17T01:10:29.914Z,23.2
2018-07-17T01:11:29.676Z,23.03
2018-07-17T01:12:29.964Z,23.02
2018-07-17T01:13:29.983Z,22.99
2018-07-17T01:14:29.756Z,22.99
2018-07-17T01:15:30.045Z,22.99
2018-07-17T01:16:29.807Z,23.05
2018-07-17T01:17:29.561Z,22.99
2018-07-17T01:18:29.587Z,22.93
2018-07-17T01:19:30.147Z,22.9
2018-07-17T01:20:30.159Z,22.88
2018-07-17T01:21:30.183Z,22.87
2018-07-17T01:22:30.206Z,22.87
2018-07-17T01:23:29.971Z,22.88
2018-07-17T01:24:29.997Z,22.94
2018-07-17T01:25:30.283Z,22.88
2018-07-17T01:26:30.306Z,22.9
2018-07-17T01:27:30.342Z,22.73
2018-07-17T01:28:30.096Z,22.8
2018-07-17T01:29:30.383Z,22.8
2018-07-17T01:30:29.881Z,22.8
2018-07-17T01:31:30.434Z,22.7
2018-07-17T01:32:30.457Z,22.75
2018-07-17T01:33:30.479Z,22.7
2018-07-17T01:34:30.242Z,22.68
2018-07-17T01:35:30.530Z,22.68
2018-07-17T01:36:30.555Z,22.72
2018-07-17T01:37:30.576Z,22.68
2018-07-17T01:38:30.469Z,22.6
2018-07-17T01:39:30.371Z,22.69
2018-07-17T01:40:30.650Z,22.57
2018-07-17T01:41:30.676Z,22.63
2018-07-17T01:42:30.696Z,22.62
2018-07-17T01:43:30.726Z,22.62
2018-07-17T01:44:30.748Z,22.54
2018-07-17T01:45:30.775Z,22.5
2018-07-17T01:46:30.798Z,22.55
2018-07-17T01:47:30.815Z,22.53
2018-07-17T01:48:30.844Z,22.45
2018-07-17T01:49:30.658Z,22.51
2018-07-17T01:50:30.893Z,22.55
2018-07-17T01:51:30.921Z,22.45
2018-07-17T01:52:30.942Z,22.47
2018-07-17T01:53:30.701Z,22.53
2018-07-17T01:54:30.986Z,22.45
2018-07-17T01:55:31.011Z,22.51
2018-07-17T01:56:31.181Z,22.53
2018-07-17T01:57:31.423Z,22.36
2018-07-17T01:58:31.081Z,22.47
2018-07-17T01:59:31.105Z,22.41
2018-07-17T02:00:30.870Z,22.38
2018-07-17T02:01:30.641Z,22.35
2018-07-17T02:02:30.918Z,22.33
2018-07-17T02:03:31.209Z,22.33
2018-07-17T02:04:31.230Z,22.33
2018-07-17T02:05:30.996Z,22.35
2018-07-17T02:06:31.274Z,22.28
2018-07-17T02:07:31.049Z,22.25
2018-07-17T02:08:31.064Z,22.3
2018-07-17T02:09:31.095Z,22.26
2018-07-17T02:10:31.373Z,22.2
2018-07-17T02:11:31.451Z,22.18
2018-07-17T02:12:31.161Z,22.26
2018-07-17T02:13:31.451Z,22.15
2018-07-17T02:14:31.473Z,22.25
2018-07-17T02:15:31.492Z,22.18
2018-07-17T02:16:31.518Z,22.14
2018-07-17T02:17:31.547Z,22.1
2018-07-17T02:18:31.586Z,22.11
2018-07-17T02:19:31.333Z,22.17
2018-07-17T02:20:31.099Z,22.17
2018-07-17T02:21:31.639Z,22.06
2018-07-17T02:22:31.146Z,22.04
2018-07-17T02:23:31.685Z,21.98
2018-07-17T02:24:31.716Z,21.96
2018-07-17T02:25:31.773Z,21.99
2018-07-17T02:26:31.758Z,22
2018-07-17T02:27:31.787Z,21.99
2018-07-17T02:28:31.975Z,22.04
2018-07-17T02:29:31.825Z,22
2018-07-17T02:30:31.682Z,22.02
2018-07-17T02:31:31.620Z,22.02
2018-07-17T02:32:31.900Z,21.91
2018-07-17T02:33:32.044Z,21.96
2018-07-17T02:34:31.950Z,21.85
2018-07-17T02:35:31.452Z,21.89
2018-07-17T02:36:32.000Z,21.91
2018-07-17T02:37:31.781Z,21.83
2018-07-17T02:38:31.786Z,21.89
2018-07-17T02:39:31.812Z,21.83
2018-07-17T02:40:32.114Z,21.89
2018-07-17T02:41:32.115Z,21.77
2018-07-17T02:42:32.603Z,21.83
2018-07-17T02:43:32.164Z,21.8
2018-07-17T02:44:32.219Z,21.75
2018-07-17T02:45:31.748Z,21.79
2018-07-17T02:46:32.237Z,21.73
2018-07-17T02:47:31.739Z,21.72
2018-07-17T02:48:32.030Z,21.72
2018-07-17T02:49:32.046Z,21.75
2018-07-17T02:50:32.074Z,21.72
2018-07-17T02:51:32.095Z,21.66
2018-07-17T02:52:32.119Z,21.6
2018-07-17T02:53:32.400Z,21.66
2018-07-17T02:54:32.434Z,21.61
2018-07-17T02:55:32.453Z,21.58
2018-07-17T02:56:32.210Z,21.55
2018-07-17T02:57:32.252Z,21.64
2018-07-17T02:58:32.263Z,21.61
2018-07-17T02:59:32.539Z,21.58
2018-07-17T03:00:32.305Z,21.62
2018-07-17T03:01:32.329Z,21.58
2018-07-17T03:02:32.614Z,21.46
2018-07-17T03:03:32.637Z,21.57
2018-07-17T03:04:32.404Z,21.51
2018-07-17T03:05:32.683Z,21.48
2018-07-17T03:06:32.458Z,21.46
2018-07-17T03:07:32.729Z,21.42
2018-07-17T03:08:32.573Z,21.45
2018-07-17T03:09:32.527Z,21.43
2018-07-17T03:10:32.802Z,21.46
2018-07-17T03:11:32.560Z,21.48
2018-07-17T03:12:32.845Z,21.36
2018-07-17T03:13:32.876Z,21.45
2018-07-17T03:14:32.899Z,21.36
2018-07-17T03:15:33.269Z,21.4
2018-07-17T03:16:32.935Z,21.39
2018-07-17T03:17:32.709Z,21.39
2018-07-17T03:18:32.986Z,21.4
2018-07-17T03:19:33.024Z,21.39
2018-07-17T03:20:33.036Z,21.36
2018-07-17T03:21:33.063Z,21.42
2018-07-17T03:22:33.082Z,21.3
2018-07-17T03:23:32.842Z,21.3
2018-07-17T03:24:33.301Z,21.4
2018-07-17T03:25:33.153Z,21.27
2018-07-17T03:26:32.909Z,21.32
2018-07-17T03:27:32.956Z,21.29
2018-07-17T03:28:33.222Z,21.27
2018-07-17T03:29:32.983Z,21.29
2018-07-17T03:30:33.269Z,21.24
2018-07-17T03:31:33.288Z,21.27
2018-07-17T03:32:33.049Z,21.33
2018-07-17T03:33:33.334Z,21.29
2018-07-17T03:34:33.354Z,21.24
2018-07-17T03:35:33.384Z,21.22
2018-07-17T03:36:33.742Z,21.22
2018-07-17T03:37:33.167Z,21.18
2018-07-17T03:38:33.455Z,21.18
2018-07-17T03:39:33.218Z,21.18
2018-07-17T03:40:33.233Z,21.21
2018-07-17T03:41:33.521Z,21.18
2018-07-17T03:42:33.282Z,21.09
2018-07-17T03:43:33.571Z,21.17
2018-07-17T03:44:33.324Z,21.09
2018-07-17T03:45:33.615Z,21.07
2018-07-17T03:46:33.637Z,21.17
2018-07-17T03:47:33.395Z,21.12
2018-07-17T03:48:33.680Z,21.05
2018-07-17T03:49:33.705Z,21.03
2018-07-17T03:50:33.724Z,21.11
2018-07-17T03:51:33.491Z,20.99
2018-07-17T03:52:33.774Z,21.02
2018-07-17T03:53:33.794Z,21.02
2018-07-17T03:54:33.825Z,21.05
2018-07-17T03:55:33.845Z,21.05
2018-07-17T03:56:33.606Z,21.06
2018-07-17T03:57:33.630Z,20.97
2018-07-17T03:58:33.915Z,21
2018-07-17T03:59:33.964Z,20.97
2018-07-17T04:00:33.713Z,20.9
2018-07-17T04:01:33.982Z,20.9
2018-07-17T04:02:34.027Z,20.96
2018-07-17T04:03:34.029Z,20.96
2018-07-17T04:04:34.053Z,20.95
2018-07-17T04:05:34.075Z,20.9
2018-07-17T04:06:33.840Z,20.96
2018-07-17T04:07:33.599Z,20.99
2018-07-17T04:08:33.918Z,20.9
2018-07-17T04:09:33.909Z,20.93
2018-07-17T04:10:34.187Z,20.92
2018-07-17T04:11:34.209Z,20.88
2018-07-17T04:12:34.236Z,20.96
2018-07-17T04:13:34.202Z,20.84
2018-07-17T04:14:34.282Z,20.8
2018-07-17T04:15:34.305Z,20.84
2018-07-17T04:16:34.330Z,20.87
2018-07-17T04:17:34.356Z,20.85
2018-07-17T04:18:34.368Z,20.8
2018-07-17T04:19:34.395Z,20.8
2018-07-17T04:20:34.417Z,20.9
2018-07-17T04:21:34.421Z,20.82
2018-07-17T04:22:34.479Z,20.85
2018-07-17T04:23:34.230Z,20.81
2018-07-17T04:24:33.988Z,20.81
2018-07-17T04:25:34.275Z,20.85
2018-07-17T04:26:34.295Z,20.87
2018-07-17T04:27:34.319Z,20.77
2018-07-17T04:28:34.360Z,20.8
2018-07-17T04:29:34.622Z,20.78
2018-07-17T04:30:34.651Z,20.82
2018-07-17T04:31:34.801Z,20.74
2018-07-17T04:32:34.432Z,20.75
2018-07-17T04:33:34.456Z,20.8
2018-07-17T04:34:34.476Z,20.77
2018-07-17T04:35:34.505Z,20.77
2018-07-17T04:36:35.289Z,20.78
2018-07-17T04:37:34.806Z,20.78
2018-07-17T04:38:34.725Z,20.74
2018-07-17T04:39:34.601Z,20.78
2018-07-17T04:40:34.893Z,20.77
2018-07-17T04:41:34.896Z,20.8
2018-07-17T04:42:34.924Z,20.75
2018-07-17T04:43:34.947Z,20.72
2018-07-17T04:44:34.971Z,20.75
2018-07-17T04:45:35.018Z,20.75
2018-07-17T04:46:34.759Z,20.77
2018-07-17T04:47:35.054Z,20.72
2018-07-17T04:48:34.800Z,20.74
2018-07-17T04:49:35.089Z,20.74
2018-07-17T04:50:34.844Z,20.77
2018-07-17T04:51:34.614Z,20.7
2018-07-17T04:52:35.151Z,20.69
2018-07-17T04:53:35.172Z,20.74
2018-07-17T04:54:34.946Z,20.72
2018-07-17T04:55:34.956Z,20.67
2018-07-17T04:56:35.242Z,20.75
2018-07-17T04:57:35.264Z,20.58
2018-07-17T04:58:35.027Z,20.7
2018-07-17T04:59:35.304Z,20.72
2018-07-17T05:00:35.336Z,20.7
2018-07-17T05:01:35.515Z,20.74
2018-07-17T05:02:35.118Z,20.72
2018-07-17T05:03:35.404Z,20.75
2018-07-17T05:04:35.165Z,20.72
2018-07-17T05:05:35.183Z,20.7
2018-07-17T05:06:35.202Z,20.7
2018-07-17T05:07:35.236Z,20.66
2018-07-17T05:08:34.990Z,20.7
2018-07-17T05:09:35.547Z,20.75
2018-07-17T05:10:35.560Z,20.74
2018-07-17T05:11:35.584Z,20.74
2018-07-17T05:12:35.662Z,20.72
2018-07-17T05:13:35.625Z,20.77
2018-07-17T05:14:35.389Z,20.74
2018-07-17T05:15:35.408Z,20.75
2018-07-17T05:16:35.668Z,20.72
2018-07-17T05:17:35.735Z,20.77
2018-07-17T05:18:35.736Z,20.75
2018-07-17T05:19:35.762Z,20.74
2018-07-17T05:20:35.787Z,20.74
2018-07-17T05:21:35.805Z,20.74
2018-07-17T05:22:35.568Z,20.75
2018-07-17T05:23:35.853Z,20.78
2018-07-17T05:24:35.880Z,20.8
2018-07-17T05:25:35.904Z,20.75
2018-07-17T05:26:35.923Z,20.78
2018-07-17T05:27:35.940Z,20.74
2018-07-17T05:28:35.960Z,20.78
2018-07-17T05:29:35.730Z,20.75
2018-07-17T05:30:36.007Z,20.75
2018-07-17T05:31:36.083Z,20.75
2018-07-17T05:32:36.090Z,20.75
2018-07-17T05:33:35.827Z,20.82
2018-07-17T05:34:35.859Z,20.77
2018-07-17T05:35:36.471Z,20.82
2018-07-17T05:36:35.882Z,20.85
2018-07-17T05:37:36.171Z,20.8
2018-07-17T05:38:36.189Z,20.84
2018-07-17T05:39:36.216Z,20.81
2018-07-17T05:40:35.977Z,20.9
2018-07-17T05:41:36.048Z,20.9
2018-07-17T05:42:36.287Z,20.77
2018-07-17T05:43:36.040Z,20.78
2018-07-17T05:44:36.331Z,20.81
2018-07-17T05:45:36.347Z,20.85
2018-07-17T05:46:36.255Z,20.82
2018-07-17T05:47:36.395Z,20.85
2018-07-17T05:48:36.418Z,20.92
2018-07-17T05:49:36.439Z,20.84
2018-07-17T05:50:36.460Z,20.87
2018-07-17T05:51:36.490Z,20.93
2018-07-17T05:52:36.509Z,20.97
2018-07-17T05:53:36.588Z,20.88
2018-07-17T05:54:36.305Z,20.93
2018-07-17T05:55:36.317Z,20.9
2018-07-17T05:56:36.350Z,20.88
2018-07-17T05:57:36.373Z,20.93
2018-07-17T05:58:36.641Z,20.96
2018-07-17T05:59:36.671Z,20.96
2018-07-17T06:00:36.693Z,20.95
2018-07-17T06:01:36.450Z,21
2018-07-17T06:02:36.738Z,21.02
2018-07-17T06:03:36.502Z,21
2018-07-17T06:04:36.520Z,21.02
2018-07-17T06:05:36.539Z,21.02
2018-07-17T06:06:36.307Z,20.99
2018-07-17T06:07:36.595Z,21.02
2018-07-17T06:08:36.381Z,21.05
2018-07-17T06:09:36.899Z,20.97
2018-07-17T06:10:36.916Z,21.05
2018-07-17T06:11:36.679Z,21.05
2018-07-17T06:12:36.700Z,21.09
2018-07-17T06:13:37.001Z,21.02
2018-07-17T06:14:37.018Z,21.11
2018-07-17T06:15:37.030Z,21.09
2018-07-17T06:16:37.056Z,21.11
2018-07-17T06:17:37.079Z,21.15
2018-07-17T06:18:36.838Z,21.18
2018-07-17T06:19:37.124Z,21.15
2018-07-17T06:20:36.884Z,21.18
2018-07-17T06:21:37.177Z,21.24
2018-07-17T06:22:37.190Z,21.17
2018-07-17T06:23:37.211Z,21.22
2018-07-17T06:24:37.242Z,21.3
2018-07-17T06:25:37.262Z,21.24
2018-07-17T06:26:37.282Z,21.24
2018-07-17T06:27:37.355Z,21.25
2018-07-17T06:28:37.330Z,21.27
2018-07-17T06:29:37.345Z,21.36
2018-07-17T06:30:37.641Z,21.33
2018-07-17T06:31:37.405Z,21.33
2018-07-17T06:32:37.169Z,21.32
2018-07-17T06:33:37.177Z,21.33
2018-07-17T06:34:37.496Z,21.37
2018-07-17T06:35:37.541Z,21.42
2018-07-17T06:36:37.508Z,21.37
2018-07-17T06:37:37.543Z,21.35
2018-07-17T06:38:37.551Z,21.36
2018-07-17T06:39:37.581Z,21.35
2018-07-17T06:40:37.606Z,21.42
2018-07-17T06:41:37.625Z,21.45
2018-07-17T06:42:37.672Z,21.37
2018-07-17T06:43:37.669Z,21.51
2018-07-17T06:44:37.836Z,21.52
2018-07-17T06:45:37.968Z,21.54
2018-07-17T06:46:37.477Z,21.62
2018-07-17T06:47:37.498Z,21.58
2018-07-17T06:48:37.522Z,21.55
2018-07-17T06:49:37.807Z,21.54
2018-07-17T06:50:38.453Z,21.61
2018-07-17T06:51:37.847Z,21.61
2018-07-17T06:52:37.873Z,21.62
2018-07-17T06:53:37.640Z,21.64
2018-07-17T06:54:37.920Z,21.77
2018-07-17T06:55:37.944Z,21.69
2018-07-17T06:56:37.963Z,21.7
2018-07-17T06:57:37.989Z,21.79
2018-07-17T06:58:38.015Z,21.75
2018-07-17T06:59:38.043Z,21.8
2018-07-17T07:00:38.055Z,21.88
2018-07-17T07:01:38.079Z,21.83
2018-07-17T07:02:38.108Z,21.91
2018-07-17T07:03:37.871Z,21.95
2018-07-17T07:04:38.147Z,21.96
2018-07-17T07:05:38.176Z,21.93
2018-07-17T07:06:37.676Z,22
2018-07-17T07:07:38.220Z,21.98
2018-07-17T07:08:37.993Z,21.96
2018-07-17T07:09:38.005Z,21.99
2018-07-17T07:10:38.023Z,22.14
2018-07-17T07:11:38.308Z,22.14
2018-07-17T07:12:38.331Z,22.14
2018-07-17T07:13:38.092Z,22.22
2018-07-17T07:14:38.378Z,22.28
2018-07-17T07:15:38.160Z,22.26
2018-07-17T07:16:38.162Z,22.3
2018-07-17T07:17:38.447Z,22.35
2018-07-17T07:18:38.467Z,22.43
2018-07-17T07:19:38.512Z,22.33
2018-07-17T07:20:38.520Z,22.45
2018-07-17T07:21:38.542Z,22.5
2018-07-17T07:22:38.297Z,22.47
2018-07-17T07:23:38.321Z,22.53
2018-07-17T07:24:38.612Z,22.54
2018-07-17T07:25:38.368Z,22.62
2018-07-17T07:26:38.136Z,22.69
2018-07-17T07:27:38.423Z,22.72
2018-07-17T07:28:38.699Z,22.8
2018-07-17T07:29:38.736Z,22.85
2018-07-17T07:30:38.231Z,22.84
2018-07-17T07:31:38.772Z,22.88
2018-07-17T07:32:38.800Z,22.99
2018-07-17T07:33:38.556Z,22.99
2018-07-17T07:34:38.580Z,23.09
2018-07-17T07:35:38.865Z,23.12
2018-07-17T07:36:38.884Z,23.21
2018-07-17T07:37:38.651Z,23.2
2018-07-17T07:38:38.670Z,23.27
2018-07-17T07:39:38.701Z,23.31
2018-07-17T07:40:38.718Z,23.36
2018-07-17T07:41:39.010Z,23.5
2018-07-17T07:42:38.844Z,23.5
2018-07-17T07:43:38.789Z,23.55
2018-07-17T07:44:39.075Z,23.65
2018-07-17T07:45:39.100Z,23.71
2018-07-17T07:46:39.132Z,23.69
2018-07-17T07:47:38.886Z,23.77
2018-07-17T07:48:38.904Z,23.92
2018-07-17T07:49:39.195Z,23.84
2018-07-17T07:50:38.953Z,23.88
2018-07-17T07:51:39.236Z,24.02
2018-07-17T07:52:39.279Z,24.11
2018-07-17T07:53:39.026Z,24.17
2018-07-17T07:54:39.307Z,24.23
2018-07-17T07:55:39.151Z,24.23
2018-07-17T07:56:39.104Z,24.43
2018-07-17T07:57:39.132Z,24.39
2018-07-17T07:58:39.142Z,24.4
2018-07-17T07:59:39.428Z,24.57
2018-07-17T08:00:39.451Z,24.54
2018-07-17T08:01:39.217Z,24.55
2018-07-17T08:02:39.499Z,24.77
2018-07-17T08:03:39.343Z,24.77
2018-07-17T08:04:39.569Z,24.92
2018-07-17T08:05:39.573Z,24.89
2018-07-17T08:06:39.619Z,24.96
2018-07-17T08:07:39.359Z,25.11
2018-07-17T08:08:39.640Z,25.14
2018-07-17T08:09:39.679Z,25.16
2018-07-17T08:10:39.430Z,25.26
2018-07-17T08:11:39.532Z,25.33
2018-07-17T08:12:39.478Z,25.38
2018-07-17T08:13:39.768Z,25.46
2018-07-17T08:14:39.805Z,25.58
2018-07-17T08:15:39.813Z,25.58
2018-07-17T08:16:39.836Z,25.69
2018-07-17T08:17:39.599Z,25.7
2018-07-17T08:18:39.883Z,25.75
2018-07-17T08:19:39.648Z,25.84
2018-07-17T08:20:39.936Z,25.93
2018-07-17T08:21:39.439Z,25.99
2018-07-17T08:22:39.992Z,26.05
2018-07-17T08:23:40.020Z,26.19
2018-07-17T08:24:39.769Z,26.21
2018-07-17T08:25:39.801Z,26.26
2018-07-17T08:26:40.084Z,26.37
2018-07-17T08:27:40.109Z,26.43
2018-07-17T08:28:40.137Z,26.45
2018-07-17T08:29:40.371Z,26.59
2018-07-17T08:30:40.179Z,26.65
2018-07-17T08:31:39.949Z,26.75
2018-07-17T08:32:40.227Z,26.77
2018-07-17T08:33:39.990Z,26.85
2018-07-17T08:34:40.279Z,26.92
2018-07-17T08:35:40.099Z,26.93
2018-07-17T08:36:40.066Z,26.97
2018-07-17T08:37:40.358Z,27.07
2018-07-17T08:38:40.120Z,27.25
2018-07-17T08:39:40.142Z,27.29
2018-07-17T08:40:39.904Z,27.29
2018-07-17T08:41:40.189Z,27.39
2018-07-17T08:42:40.480Z,27.52
2018-07-17T08:43:40.388Z,27.49
2018-07-17T08:44:40.533Z,27.6
2018-07-17T08:45:40.557Z,27.7
2018-07-17T08:46:40.320Z,27.8
2018-07-17T08:47:40.345Z,27.82
2018-07-17T08:48:40.109Z,27.98
2018-07-17T08:49:40.666Z,28.02
2018-07-17T08:50:40.684Z,28.11
2018-07-17T08:51:40.446Z,28.14
2018-07-17T08:52:40.732Z,28.22
2018-07-17T08:53:40.497Z,28.27
2018-07-17T08:54:41.161Z,28.37
2018-07-17T08:55:40.547Z,28.39
2018-07-17T08:56:40.836Z,28.49
2018-07-17T08:57:40.870Z,28.45
2018-07-17T08:58:40.626Z,28.7
2018-07-17T08:59:40.910Z,28.66
2018-07-17T09:00:40.938Z,28.78
2018-07-17T09:01:40.972Z,28.84
2018-07-17T09:02:40.725Z,28.81
2018-07-17T09:03:41.015Z,28.94
2018-07-17T09:04:40.785Z,29.05
2018-07-17T09:05:41.065Z,29.05
2018-07-17T09:06:41.097Z,29.16
2018-07-17T09:07:41.120Z,29.19
2018-07-17T09:08:41.143Z,29.29
2018-07-17T09:09:41.171Z,29.38
2018-07-17T09:10:41.201Z,29.45
2018-07-17T09:11:40.961Z,29.53
2018-07-17T09:12:41.245Z,29.53
2018-07-17T09:13:41.273Z,29.66
2018-07-17T09:14:41.303Z,29.71
2018-07-17T09:15:41.331Z,29.87
2018-07-17T09:16:41.361Z,29.88
2018-07-17T09:17:41.376Z,29.95
2018-07-17T09:18:41.410Z,30.1
2018-07-17T09:19:41.440Z,30.15
2018-07-17T09:20:41.201Z,30.18
2018-07-17T09:21:41.703Z,30.24
2018-07-17T09:22:41.523Z,30.32
2018-07-17T09:23:41.549Z,30.4
2018-07-17T09:24:41.306Z,30.48
2018-07-17T09:25:41.591Z,30.53
2018-07-17T09:26:41.359Z,30.65
2018-07-17T09:27:41.654Z,30.77
2018-07-17T09:28:41.414Z,30.84
2018-07-17T09:29:41.455Z,30.85
2018-07-17T09:30:41.727Z,30.97
2018-07-17T09:31:41.755Z,31.07
2018-07-17T09:32:41.578Z,31.1
2018-07-17T09:33:41.662Z,31.25
2018-07-17T09:34:41.840Z,31.28
2018-07-17T09:35:41.862Z,31.4
2018-07-17T09:36:41.636Z,31.39
2018-07-17T09:37:41.659Z,31.43
2018-07-17T09:38:41.955Z,31.54
2018-07-17T09:39:41.728Z,31.64
2018-07-17T09:40:41.744Z,31.69
2018-07-17T09:41:42.034Z,31.73
2018-07-17T09:42:42.591Z,31.81
2018-07-17T09:43:42.084Z,31.92
2018-07-17T09:44:41.863Z,31.93
2018-07-17T09:45:42.158Z,32.03
2018-07-17T09:46:41.907Z,32.11
2018-07-17T09:47:42.194Z,32.18
2018-07-17T09:48:42.225Z,32.16
2018-07-17T09:49:41.741Z,32.27
2018-07-17T09:50:42.021Z,32.29
2018-07-17T09:51:42.303Z,32.38
2018-07-17T09:52:42.336Z,32.4
2018-07-17T09:53:42.373Z,32.48
2018-07-17T09:54:42.134Z,32.56
2018-07-17T09:55:42.422Z,32.7
2018-07-17T09:56:42.451Z,32.7
2018-07-17T09:57:42.217Z,32.73
2018-07-17T09:58:42.503Z,32.86
2018-07-17T09:59:42.533Z,32.95
2018-07-17T10:00:42.564Z,33.07
2018-07-17T10:01:42.067Z,33.11
2018-07-17T10:02:42.628Z,33.17
2018-07-17T10:03:42.650Z,33.22
2018-07-17T10:04:42.540Z,33.31
2018-07-17T10:05:42.452Z,33.36
2018-07-17T10:06:42.481Z,33.31
2018-07-17T10:07:42.762Z,33.5
2018-07-17T10:08:42.788Z,33.57
2018-07-17T10:09:42.571Z,33.68
2018-07-17T10:10:42.852Z,33.69
2018-07-17T10:11:42.899Z,33.8
2018-07-17T10:12:42.649Z,33.84
2018-07-17T10:13:42.946Z,33.94
2018-07-17T10:14:42.842Z,34.06
2018-07-17T10:15:42.998Z,34.06
2018-07-17T10:16:43.028Z,34.08
2018-07-17T10:17:43.055Z,34.18
2018-07-17T10:18:43.083Z,34.27
2018-07-17T10:19:43.114Z,34.36
2018-07-17T10:20:42.888Z,34.42
2018-07-17T10:21:43.175Z,34.5
2018-07-17T10:22:43.215Z,34.67
2018-07-17T10:23:43.234Z,34.62
2018-07-17T10:24:43.007Z,34.66
2018-07-17T10:25:43.291Z,34.67
2018-07-17T10:26:43.471Z,34.78
2018-07-17T10:27:43.349Z,34.85
2018-07-17T10:28:43.382Z,35.02
2018-07-17T10:29:43.422Z,35
2018-07-17T10:30:43.441Z,35.11
2018-07-17T10:31:43.482Z,35.1
2018-07-17T10:32:43.505Z,35.19
2018-07-17T10:33:43.271Z,35.34
2018-07-17T10:34:43.557Z,35.31
2018-07-17T10:35:43.603Z,35.41
2018-07-17T10:36:43.368Z,35.46
2018-07-17T10:37:43.656Z,35.48
2018-07-17T10:38:43.608Z,35.55
2018-07-17T10:39:43.193Z,35.55
2018-07-17T10:40:43.746Z,35.66
2018-07-17T10:41:43.510Z,35.71
2018-07-17T10:42:43.994Z,35.85
2018-07-17T10:43:43.578Z,35.8
2018-07-17T10:44:43.863Z,35.86
2018-07-17T10:45:43.894Z,35.97
2018-07-17T10:46:43.928Z,35.98
2018-07-17T10:47:44.319Z,36.12
2018-07-17T10:48:43.990Z,36.21
2018-07-17T10:49:44.022Z,36.2
2018-07-17T10:50:44.052Z,36.2
2018-07-17T10:51:43.819Z,36.35
2018-07-17T10:52:44.115Z,36.36
2018-07-17T10:53:43.882Z,36.36
2018-07-17T10:54:43.917Z,36.42
2018-07-17T10:55:44.206Z,36.61
2018-07-17T10:56:43.992Z,36.51
2018-07-17T10:57:44.010Z,36.62
2018-07-17T10:58:44.307Z,36.59
2018-07-17T10:59:44.325Z,36.76
2018-07-17T11:00:44.099Z,36.79
2018-07-17T11:01:44.394Z,36.84
2018-07-17T11:02:44.425Z,36.84
2018-07-17T11:03:44.457Z,36.99
2018-07-17T11:04:44.508Z,36.95
2018-07-17T11:05:44.521Z,37.08
2018-07-17T11:06:44.049Z,37.06
2018-07-17T11:07:44.581Z,37.17
2018-07-17T11:08:44.354Z,37.26
2018-07-17T11:09:44.650Z,37.21
2018-07-17T11:10:44.420Z,37.33
2018-07-17T11:11:44.714Z,37.48
2018-07-17T11:12:44.744Z,37.59
2018-07-17T11:13:44.776Z,37.44
2018-07-17T11:14:44.804Z,37.56
2018-07-17T11:15:44.836Z,37.65
2018-07-17T11:16:44.867Z,37.7
2018-07-17T11:17:44.907Z,37.74
2018-07-17T11:18:44.933Z,37.8
2018-07-17T11:19:44.962Z,37.92
2018-07-17T11:20:45.002Z,38.01
2018-07-17T11:21:45.034Z,38.02
2018-07-17T11:22:45.065Z,38.09
2018-07-17T11:23:44.830Z,38.14
2018-07-17T11:24:44.866Z,38.33
2018-07-17T11:25:45.161Z,38.23
2018-07-17T11:26:45.196Z,38.31
2018-07-17T11:27:44.963Z,38.3
2018-07-17T11:28:44.996Z,38.46
2018-07-17T11:29:45.294Z,38.46
2018-07-17T11:30:45.318Z,38.49
2018-07-17T11:31:45.095Z,38.57
2018-07-17T11:32:45.415Z,38.62
2018-07-17T11:33:45.417Z,38.65
2018-07-17T11:34:44.935Z,38.76
2018-07-17T11:35:45.225Z,38.8
2018-07-17T11:36:45.518Z,38.95
2018-07-17T11:37:45.030Z,39.04
2018-07-17T11:38:45.392Z,39.09
2018-07-17T11:39:45.616Z,39.11
2018-07-17T11:40:45.395Z,39.09
2018-07-17T11:41:45.424Z,39.21
2018-07-17T11:42:45.723Z,39.26
2018-07-17T11:43:45.498Z,39.26
2018-07-17T11:44:45.783Z,39.31
2018-07-17T11:45:45.821Z,39.46
2018-07-17T11:46:45.855Z,39.44
2018-07-17T11:47:46.021Z,39.6
2018-07-17T11:48:45.919Z,39.62
2018-07-17T11:49:45.950Z,39.63
2018-07-17T11:50:45.983Z,39.65
2018-07-17T11:51:46.034Z,39.74
2018-07-17T11:52:46.050Z,39.77
2018-07-17T11:53:46.084Z,39.86
2018-07-17T11:54:46.118Z,39.94
2018-07-17T11:55:45.631Z,39.99
2018-07-17T11:56:46.185Z,39.97
2018-07-17T11:57:46.224Z,40.06
2018-07-17T11:58:45.989Z,40.08
2018-07-17T11:59:46.023Z,40.27
2018-07-17T12:00:46.064Z,40.28
2018-07-17T12:01:46.095Z,40.34
2018-07-17T12:02:46.126Z,40.43
2018-07-17T12:03:46.424Z,40.54
2018-07-17T12:04:46.463Z,40.61
2018-07-17T12:05:46.709Z,40.65
2018-07-17T12:06:46.526Z,40.69
2018-07-17T12:07:46.314Z,40.75
2018-07-17T12:08:46.594Z,40.7
2018-07-17T12:09:46.624Z,40.75
2018-07-17T12:10:46.666Z,40.82
2018-07-17T12:11:46.697Z,40.88
2018-07-17T12:12:47.101Z,40.92
2018-07-17T12:13:46.770Z,41.02
2018-07-17T12:14:46.797Z,41.03
2018-07-17T12:15:46.840Z,41.16
2018-07-17T12:16:46.607Z,41.19
2018-07-17T12:17:46.899Z,41.31
2018-07-17T12:18:46.418Z,41.38
2018-07-17T12:19:47.036Z,41.37
2018-07-17T12:20:47.003Z,41.41
2018-07-17T12:21:47.040Z,41.49
2018-07-17T12:22:47.072Z,41.53
2018-07-17T12:23:47.106Z,41.59
2018-07-17T12:24:47.151Z,41.66
2018-07-17T12:25:47.189Z,41.75
2018-07-17T12:26:47.211Z,41.8
2018-07-17T12:27:46.991Z,41.77
2018-07-17T12:28:47.076Z,41.8
2018-07-17T12:29:46.799Z,41.94
2018-07-17T12:30:47.357Z,41.95
2018-07-17T12:31:47.389Z,41.99
2018-07-17T12:32:47.168Z,42.07
2018-07-17T12:33:47.469Z,42.17
2018-07-17T12:34:47.293Z,42.16
2018-07-17T12:35:47.547Z,42.26
2018-07-17T12:36:47.571Z,42.25
2018-07-17T12:37:47.601Z,42.31
2018-07-17T12:38:47.380Z,42.35
2018-07-17T12:39:47.675Z,42.39
2018-07-17T12:40:47.705Z,42.39
2018-07-17T12:41:47.484Z,42.53
2018-07-17T12:42:47.780Z,42.47
2018-07-17T12:43:47.817Z,42.58
2018-07-17T12:44:47.851Z,42.6
2018-07-17T12:45:47.893Z,42.73
2018-07-17T12:46:47.916Z,42.73
2018-07-17T12:47:47.699Z,42.79
2018-07-17T12:48:47.993Z,42.89
2018-07-17T12:49:47.513Z,42.91
2018-07-17T12:50:47.538Z,42.95
2018-07-17T12:51:48.101Z,42.99
2018-07-17T12:52:47.874Z,43
2018-07-17T12:53:48.169Z,43.08
2018-07-17T12:54:48.203Z,43.11
2018-07-17T12:55:48.240Z,43.2
2018-07-17T12:56:48.019Z,43.2